KDDC

Dodge City Regional Airport

Dodge City, Kansas, USA
METAR KDDC 181552Z AUTO 19005KT 6SM HZ CLR 01/M03 A3004 RMK AO2 SLP193 T00111028
Observed Flight Rules
Dec-18 @ 15:52 UTC (50 minutes ago) Visual Flight Rules
Wind Visibility Clouds Conditions
190° at 5 knots 6 miles
  • Clear skies
  • Haze
Temperatures Readings
Current 1°C / 34°F
Dewpoint -3°C / 27°F
Humidity 75%
Altimeter 30.04" Hg
Pressure 1019.3 hPa
Elevation 789
METAR KDDC 181552Z AUTO 19005KT 6SM HZ CLR 01/M03 A3004 RMK AO2 SLP193 T00111028
Observed Flight Rules
Dec-18 @ 15:52 UTC
(50 minutes ago)
VFR
Wind Visibility
190° at 5 knots 6 miles
Clouds
  • Clear skies
Conditions
  • Haze
Temperature Dewpoint
1°C / 34°F -3°C / 27°F
Humidity Altimeter Pressure
75% 30.04" Hg 1019.3 hPa